sensor_id;sensor_type;location;lat;lon;timestamp;temperature;humidity
6988;DHT22;3534;49.960;8.018;2022-10-28T00:01:12;15.50;99.90
6988;DHT22;3534;49.960;8.018;2022-10-28T00:03:41;15.50;99.90
6988;DHT22;3534;49.960;8.018;2022-10-28T00:06:10;15.50;99.90
6988;DHT22;3534;49.960;8.018;2022-10-28T00:08:37;15.50;99.90
6988;DHT22;3534;49.960;8.018;2022-10-28T00:11:05;15.50;99.90
6988;DHT22;3534;49.960;8.018;2022-10-28T00:13:33;15.40;99.90
6988;DHT22;3534;49.960;8.018;2022-10-28T00:16:06;15.40;99.90
6988;DHT22;3534;49.960;8.018;2022-10-28T00:18:33;15.40;99.90
6988;DHT22;3534;49.960;8.018;2022-10-28T00:21:00;15.40;99.90
6988;DHT22;3534;49.960;8.018;2022-10-28T00:23:28;15.40;99.90
6988;DHT22;3534;49.960;8.018;2022-10-28T00:25:54;15.40;99.90
6988;DHT22;3534;49.960;8.018;2022-10-28T00:28:21;15.40;99.90
6988;DHT22;3534;49.960;8.018;2022-10-28T00:30:48;15.40;99.90
6988;DHT22;3534;49.960;8.018;2022-10-28T00:33:16;15.40;99.90
6988;DHT22;3534;49.960;8.018;2022-10-28T00:35:42;15.30;99.90
6988;DHT22;3534;49.960;8.018;2022-10-28T00:38:09;15.20;99.90
6988;DHT22;3534;49.960;8.018;2022-10-28T00:40:36;15.20;99.90
6988;DHT22;3534;49.960;8.018;2022-10-28T00:43:02;15.20;99.90
6988;DHT22;3534;49.960;8.018;2022-10-28T00:45:29;15.20;99.90
6988;DHT22;3534;49.960;8.018;2022-10-28T00:48:00;15.20;99.90
6988;DHT22;3534;49.960;8.018;2022-10-28T00:50:39;15.20;99.90
6988;DHT22;3534;49.960;8.018;2022-10-28T00:53:09;15.20;99.90
6988;DHT22;3534;49.960;8.018;2022-10-28T00:55:36;15.20;99.90
6988;DHT22;3534;49.960;8.018;2022-10-28T00:58:05;15.20;99.90
6988;DHT22;3534;49.960;8.018;2022-10-28T01:00:33;15.20;99.90
6988;DHT22;3534;49.960;8.018;2022-10-28T01:03:00;15.20;99.90
6988;DHT22;3534;49.960;8.018;2022-10-28T01:05:28;15.30;99.90
6988;DHT22;3534;49.960;8.018;2022-10-28T01:07:59;15.30;99.90
6988;DHT22;3534;49.960;8.018;2022-10-28T01:10:35;15.30;99.90
6988;DHT22;3534;49.960;8.018;2022-10-28T01:13:09;15.40;99.90
6988;DHT22;3534;49.960;8.018;2022-10-28T01:15:43;15.40;99.90
6988;DHT22;3534;49.960;8.018;2022-10-28T01:18:18;15.40;99.90
6988;DHT22;3534;49.960;8.018;2022-10-28T01:21:24;15.40;99.90
6988;DHT22;3534;49.960;8.018;2022-10-28T01:24:10;15.40;99.90
6988;DHT22;3534;49.960;8.018;2022-10-28T01:26:55;15.40;99.90
6988;DHT22;3534;49.960;8.018;2022-10-28T01:29:54;15.40;99.90
6988;DHT22;3534;49.960;8.018;2022-10-28T01:32:28;15.50;99.90
6988;DHT22;3534;49.960;8.018;2022-10-28T01:35:03;15.40;99.90
6988;DHT22;3534;49.960;8.018;2022-10-28T01:37:36;15.40;99.90
6988;DHT22;3534;49.960;8.018;2022-10-28T01:40:07;15.40;99.90
6988;DHT22;3534;49.960;8.018;2022-10-28T01:42:39;15.40;99.90
6988;DHT22;3534;49.960;8.018;2022-10-28T01:45:12;15.40;99.90
6988;DHT22;3534;49.960;8.018;2022-10-28T01:47:44;15.40;99.90
6988;DHT22;3534;49.960;8.018;2022-10-28T01:50:20;15.40;99.90
6988;DHT22;3534;49.960;8.018;2022-10-28T01:52:50;15.40;99.90
6988;DHT22;3534;49.960;8.018;2022-10-28T01:55:21;15.40;99.90
6988;DHT22;3534;49.960;8.018;2022-10-28T01:57:50;15.40;99.90
6988;DHT22;3534;49.960;8.018;2022-10-28T02:20:26;15.20;99.90
6988;DHT22;3534;49.960;8.018;2022-10-28T02:23:04;15.20;99.90
6988;DHT22;3534;49.960;8.018;2022-10-28T02:25:40;15.20;99.90
6988;DHT22;3534;49.960;8.018;2022-10-28T02:28:09;15.20;99.90
6988;DHT22;3534;49.960;8.018;2022-10-28T02:30:42;15.20;99.90
6988;DHT22;3534;49.960;8.018;2022-10-28T02:33:14;15.30;99.90
6988;DHT22;3534;49.960;8.018;2022-10-28T02:35:47;15.20;99.90
6988;DHT22;3534;49.960;8.018;2022-10-28T02:38:18;15.30;99.90
6988;DHT22;3534;49.960;8.018;2022-10-28T02:40:51;15.30;99.90
6988;DHT22;3534;49.960;8.018;2022-10-28T02:43:20;15.30;99.90
6988;DHT22;3534;49.960;8.018;2022-10-28T02:45:51;15.30;99.90
6988;DHT22;3534;49.960;8.018;2022-10-28T02:48:24;15.30;99.90
6988;DHT22;3534;49.960;8.018;2022-10-28T02:50:56;15.30;99.90
6988;DHT22;3534;49.960;8.018;2022-10-28T02:53:28;15.30;99.90
6988;DHT22;3534;49.960;8.018;2022-10-28T02:55:59;15.20;99.90
6988;DHT22;3534;49.960;8.018;2022-10-28T02:58:28;15.10;99.90
6988;DHT22;3534;49.960;8.018;2022-10-28T03:00:55;15.00;99.90
6988;DHT22;3534;49.960;8.018;2022-10-28T03:03:22;14.90;99.90
6988;DHT22;3534;49.960;8.018;2022-10-28T03:05:48;15.00;99.90
6988;DHT22;3534;49.960;8.018;2022-10-28T03:08:16;15.00;99.90
6988;DHT22;3534;49.960;8.018;2022-10-28T03:10:43;15.00;99.90
6988;DHT22;3534;49.960;8.018;2022-10-28T03:13:10;15.10;99.90
6988;DHT22;3534;49.960;8.018;2022-10-28T03:15:36;15.20;99.90
6988;DHT22;3534;49.960;8.018;2022-10-28T03:18:03;15.20;99.90
6988;DHT22;3534;49.960;8.018;2022-10-28T03:20:30;15.20;99.90
6988;DHT22;3534;49.960;8.018;2022-10-28T03:22:56;15.20;99.90
6988;DHT22;3534;49.960;8.018;2022-10-28T03:25:24;15.30;99.90
6988;DHT22;3534;49.960;8.018;2022-10-28T03:27:51;15.30;99.90
6988;DHT22;3534;49.960;8.018;2022-10-28T03:30:18;15.20;99.90
6988;DHT22;3534;49.960;8.018;2022-10-28T03:32:44;15.20;99.90
6988;DHT22;3534;49.960;8.018;2022-10-28T03:35:11;15.10;99.90
6988;DHT22;3534;49.960;8.018;2022-10-28T03:37:40;15.10;99.90
6988;DHT22;3534;49.960;8.018;2022-10-28T03:40:08;15.20;99.90
6988;DHT22;3534;49.960;8.018;2022-10-28T03:42:36;15.10;99.90
6988;DHT22;3534;49.960;8.018;2022-10-28T03:45:03;15.10;99.90
6988;DHT22;3534;49.960;8.018;2022-10-28T03:47:30;15.00;99.90
6988;DHT22;3534;49.960;8.018;2022-10-28T03:49:57;15.00;99.90
6988;DHT22;3534;49.960;8.018;2022-10-28T03:52:24;15.10;99.90
6988;DHT22;3534;49.960;8.018;2022-10-28T03:54:50;15.10;99.90
6988;DHT22;3534;49.960;8.018;2022-10-28T03:57:17;15.00;99.90
6988;DHT22;3534;49.960;8.018;2022-10-28T03:59:45;15.00;99.90
6988;DHT22;3534;49.960;8.018;2022-10-28T04:02:12;15.00;99.90
6988;DHT22;3534;49.960;8.018;2022-10-28T04:04:40;15.00;99.90
6988;DHT22;3534;49.960;8.018;2022-10-28T04:07:06;15.00;99.90
6988;DHT22;3534;49.960;8.018;2022-10-28T04:09:33;15.00;99.90
6988;DHT22;3534;49.960;8.018;2022-10-28T04:12:00;15.00;99.90
6988;DHT22;3534;49.960;8.018;2022-10-28T04:14:26;15.10;99.90
6988;DHT22;3534;49.960;8.018;2022-10-28T04:16:54;15.10;99.90
6988;DHT22;3534;49.960;8.018;2022-10-28T04:19:21;15.10;99.90
6988;DHT22;3534;49.960;8.018;2022-10-28T04:21:48;15.10;99.90
6988;DHT22;3534;49.960;8.018;2022-10-28T04:24:14;15.10;99.90
6988;DHT22;3534;49.960;8.018;2022-10-28T04:26:41;15.10;99.90
6988;DHT22;3534;49.960;8.018;2022-10-28T04:29:08;15.10;99.90
6988;DHT22;3534;49.960;8.018;2022-10-28T04:31:34;15.10;99.90
6988;DHT22;3534;49.960;8.018;2022-10-28T04:34:03;15.10;99.90
6988;DHT22;3534;49.960;8.018;2022-10-28T04:36:29;15.10;99.90
6988;DHT22;3534;49.960;8.018;2022-10-28T04:38:56;15.10;99.90
6988;DHT22;3534;49.960;8.018;2022-10-28T04:41:23;15.00;99.90
6988;DHT22;3534;49.960;8.018;2022-10-28T04:43:49;15.00;99.90
6988;DHT22;3534;49.960;8.018;2022-10-28T04:46:16;15.00;99.90
6988;DHT22;3534;49.960;8.018;2022-10-28T04:48:43;14.90;99.90
6988;DHT22;3534;49.960;8.018;2022-10-28T04:51:13;14.90;99.90
6988;DHT22;3534;49.960;8.018;2022-10-28T04:53:40;15.00;99.90
6988;DHT22;3534;49.960;8.018;2022-10-28T04:56:07;15.00;99.90
6988;DHT22;3534;49.960;8.018;2022-10-28T04:58:34;14.90;99.90
6988;DHT22;3534;49.960;8.018;2022-10-28T05:01:04;14.90;99.90
6988;DHT22;3534;49.960;8.018;2022-10-28T05:03:31;14.90;99.90
6988;DHT22;3534;49.960;8.018;2022-10-28T05:05:58;14.90;99.90
6988;DHT22;3534;49.960;8.018;2022-10-28T05:08:26;14.80;99.90
6988;DHT22;3534;49.960;8.018;2022-10-28T05:10:53;14.80;99.90
6988;DHT22;3534;49.960;8.018;2022-10-28T05:13:20;14.80;99.90
6988;DHT22;3534;49.960;8.018;2022-10-28T05:15:47;14.80;99.90
6988;DHT22;3534;49.960;8.018;2022-10-28T05:18:14;14.80;99.90
6988;DHT22;3534;49.960;8.018;2022-10-28T05:20:41;14.80;99.90
6988;DHT22;3534;49.960;8.018;2022-10-28T05:23:08;14.70;99.90
6988;DHT22;3534;49.960;8.018;2022-10-28T05:25:36;14.60;99.90
6988;DHT22;3534;49.960;8.018;2022-10-28T05:28:03;14.60;99.90
6988;DHT22;3534;49.960;8.018;2022-10-28T05:30:30;14.60;99.90
6988;DHT22;3534;49.960;8.018;2022-10-28T05:32:59;14.60;99.90
6988;DHT22;3534;49.960;8.018;2022-10-28T05:35:27;14.60;99.90
6988;DHT22;3534;49.960;8.018;2022-10-28T05:37:54;14.60;99.90
6988;DHT22;3534;49.960;8.018;2022-10-28T05:40:20;14.70;99.90
6988;DHT22;3534;49.960;8.018;2022-10-28T05:42:48;14.70;99.90
6988;DHT22;3534;49.960;8.018;2022-10-28T05:45:15;14.70;99.90
6988;DHT22;3534;49.960;8.018;2022-10-28T05:47:42;14.70;99.90
6988;DHT22;3534;49.960;8.018;2022-10-28T05:50:10;14.70;99.90
6988;DHT22;3534;49.960;8.018;2022-10-28T05:52:36;14.70;99.90
6988;DHT22;3534;49.960;8.018;2022-10-28T05:55:04;14.70;99.90
6988;DHT22;3534;49.960;8.018;2022-10-28T05:57:32;14.70;99.90
6988;DHT22;3534;49.960;8.018;2022-10-28T06:00:01;14.60;99.90
6988;DHT22;3534;49.960;8.018;2022-10-28T06:02:28;14.60;99.90
6988;DHT22;3534;49.960;8.018;2022-10-28T06:04:55;14.60;99.90
6988;DHT22;3534;49.960;8.018;2022-10-28T06:07:21;14.60;99.90
6988;DHT22;3534;49.960;8.018;2022-10-28T06:09:49;14.60;99.90
6988;DHT22;3534;49.960;8.018;2022-10-28T06:12:17;14.70;99.90
6988;DHT22;3534;49.960;8.018;2022-10-28T06:14:43;14.70;99.90
6988;DHT22;3534;49.960;8.018;2022-10-28T06:17:11;14.70;99.90
6988;DHT22;3534;49.960;8.018;2022-10-28T06:19:38;14.70;99.90
6988;DHT22;3534;49.960;8.018;2022-10-28T06:22:05;14.70;99.90
6988;DHT22;3534;49.960;8.018;2022-10-28T06:24:32;14.70;99.90
6988;DHT22;3534;49.960;8.018;2022-10-28T06:26:58;14.70;99.90
6988;DHT22;3534;49.960;8.018;2022-10-28T06:29:25;14.70;99.90
6988;DHT22;3534;49.960;8.018;2022-10-28T06:31:52;14.70;99.90
6988;DHT22;3534;49.960;8.018;2022-10-28T06:34:20;14.60;99.90
6988;DHT22;3534;49.960;8.018;2022-10-28T06:36:46;14.70;99.90
6988;DHT22;3534;49.960;8.018;2022-10-28T06:39:13;14.70;99.90
6988;DHT22;3534;49.960;8.018;2022-10-28T06:41:40;14.70;99.90
6988;DHT22;3534;49.960;8.018;2022-10-28T06:44:06;14.70;99.90
6988;DHT22;3534;49.960;8.018;2022-10-28T06:46:33;14.70;99.90
6988;DHT22;3534;49.960;8.018;2022-10-28T06:49:00;14.70;99.90
6988;DHT22;3534;49.960;8.018;2022-10-28T06:51:29;14.70;99.90
6988;DHT22;3534;49.960;8.018;2022-10-28T06:53:56;14.70;99.90
6988;DHT22;3534;49.960;8.018;2022-10-28T06:56:23;14.70;99.90
6988;DHT22;3534;49.960;8.018;2022-10-28T06:58:50;14.70;99.90
6988;DHT22;3534;49.960;8.018;2022-10-28T07:01:17;14.70;99.90
6988;DHT22;3534;49.960;8.018;2022-10-28T07:03:44;14.70;99.90
6988;DHT22;3534;49.960;8.018;2022-10-28T07:06:11;14.70;99.90
6988;DHT22;3534;49.960;8.018;2022-10-28T07:08:39;14.70;99.90
6988;DHT22;3534;49.960;8.018;2022-10-28T07:11:05;14.60;99.90
6988;DHT22;3534;49.960;8.018;2022-10-28T07:13:32;14.60;99.90
6988;DHT22;3534;49.960;8.018;2022-10-28T07:15:59;14.60;99.90
6988;DHT22;3534;49.960;8.018;2022-10-28T07:18:28;14.60;99.90
6988;DHT22;3534;49.960;8.018;2022-10-28T07:20:57;14.50;99.90
6988;DHT22;3534;49.960;8.018;2022-10-28T07:23:23;14.50;99.90
6988;DHT22;3534;49.960;8.018;2022-10-28T07:25:52;14.60;99.90
6988;DHT22;3534;49.960;8.018;2022-10-28T07:28:20;14.60;99.90
6988;DHT22;3534;49.960;8.018;2022-10-28T07:30:46;14.70;99.90
6988;DHT22;3534;49.960;8.018;2022-10-28T07:33:13;14.70;99.90
6988;DHT22;3534;49.960;8.018;2022-10-28T07:35:40;14.80;99.90
6988;DHT22;3534;49.960;8.018;2022-10-28T07:38:08;14.80;99.90
6988;DHT22;3534;49.960;8.018;2022-10-28T07:40:35;14.80;99.90
6988;DHT22;3534;49.960;8.018;2022-10-28T07:43:04;14.70;99.90
6988;DHT22;3534;49.960;8.018;2022-10-28T07:45:30;14.70;99.90
6988;DHT22;3534;49.960;8.018;2022-10-28T07:47:57;14.70;99.90
6988;DHT22;3534;49.960;8.018;2022-10-28T07:50:24;14.60;99.90
6988;DHT22;3534;49.960;8.018;2022-10-28T07:52:50;14.70;99.90
6988;DHT22;3534;49.960;8.018;2022-10-28T07:55:17;14.70;99.90
6988;DHT22;3534;49.960;8.018;2022-10-28T07:57:45;14.80;99.90
6988;DHT22;3534;49.960;8.018;2022-10-28T08:00:14;14.80;99.90
6988;DHT22;3534;49.960;8.018;2022-10-28T08:02:41;14.80;99.90
6988;DHT22;3534;49.960;8.018;2022-10-28T08:05:08;14.90;99.90
6988;DHT22;3534;49.960;8.018;2022-10-28T08:07:35;14.90;99.90
6988;DHT22;3534;49.960;8.018;2022-10-28T08:10:02;14.90;99.90
6988;DHT22;3534;49.960;8.018;2022-10-28T08:12:28;15.00;99.90
6988;DHT22;3534;49.960;8.018;2022-10-28T08:14:55;15.00;99.90
6988;DHT22;3534;49.960;8.018;2022-10-28T08:17:23;15.00;99.90
6988;DHT22;3534;49.960;8.018;2022-10-28T08:19:50;15.00;99.90
6988;DHT22;3534;49.960;8.018;2022-10-28T08:22:17;15.00;99.90
6988;DHT22;3534;49.960;8.018;2022-10-28T08:24:43;15.00;99.90
6988;DHT22;3534;49.960;8.018;2022-10-28T08:27:10;14.90;99.90
6988;DHT22;3534;49.960;8.018;2022-10-28T08:29:37;15.00;99.90
6988;DHT22;3534;49.960;8.018;2022-10-28T08:32:06;15.00;99.90
6988;DHT22;3534;49.960;8.018;2022-10-28T08:34:34;15.00;99.90
6988;DHT22;3534;49.960;8.018;2022-10-28T08:37:01;15.00;99.90
6988;DHT22;3534;49.960;8.018;2022-10-28T08:39:28;15.00;99.90
6988;DHT22;3534;49.960;8.018;2022-10-28T08:42:05;15.00;99.90
6988;DHT22;3534;49.960;8.018;2022-10-28T08:44:52;15.00;99.90
6988;DHT22;3534;49.960;8.018;2022-10-28T08:47:32;15.10;99.90
6988;DHT22;3534;49.960;8.018;2022-10-28T08:50:11;15.00;99.90
6988;DHT22;3534;49.960;8.018;2022-10-28T08:52:42;15.10;99.90
6988;DHT22;3534;49.960;8.018;2022-10-28T08:55:14;15.20;99.90
6988;DHT22;3534;49.960;8.018;2022-10-28T08:57:45;15.30;99.90
6988;DHT22;3534;49.960;8.018;2022-10-28T09:00:18;15.30;99.90
6988;DHT22;3534;49.960;8.018;2022-10-28T09:03:04;15.40;99.90
6988;DHT22;3534;49.960;8.018;2022-10-28T09:05:35;15.50;99.90
6988;DHT22;3534;49.960;8.018;2022-10-28T09:08:03;15.60;99.90
6988;DHT22;3534;49.960;8.018;2022-10-28T09:13:24;15.80;99.90
6988;DHT22;3534;49.960;8.018;2022-10-28T09:15:59;15.80;99.90
6988;DHT22;3534;49.960;8.018;2022-10-28T09:18:42;15.90;99.90
6988;DHT22;3534;49.960;8.018;2022-10-28T09:21:18;16.00;99.90
6988;DHT22;3534;49.960;8.018;2022-10-28T09:23:52;16.00;99.90
6988;DHT22;3534;49.960;8.018;2022-10-28T09:26:25;16.00;99.90
6988;DHT22;3534;49.960;8.018;2022-10-28T09:29:01;16.10;99.90
6988;DHT22;3534;49.960;8.018;2022-10-28T09:31:32;16.20;99.90
6988;DHT22;3534;49.960;8.018;2022-10-28T09:34:10;16.30;99.90
6988;DHT22;3534;49.960;8.018;2022-10-28T09:36:43;16.30;99.90
6988;DHT22;3534;49.960;8.018;2022-10-28T09:39:15;16.40;99.90
6988;DHT22;3534;49.960;8.018;2022-10-28T09:41:44;16.50;99.90
6988;DHT22;3534;49.960;8.018;2022-10-28T09:44:17;16.60;99.90
6988;DHT22;3534;49.960;8.018;2022-10-28T09:46:46;16.70;99.90
6988;DHT22;3534;49.960;8.018;2022-10-28T09:49:17;16.70;99.90
6988;DHT22;3534;49.960;8.018;2022-10-28T09:51:51;16.80;99.90
6988;DHT22;3534;49.960;8.018;2022-10-28T09:54:27;16.80;99.90
6988;DHT22;3534;49.960;8.018;2022-10-28T09:56:55;16.90;99.90
6988;DHT22;3534;49.960;8.018;2022-10-28T09:59:22;16.90;99.90
6988;DHT22;3534;49.960;8.018;2022-10-28T10:01:48;16.90;99.90
6988;DHT22;3534;49.960;8.018;2022-10-28T10:04:17;17.00;99.90
6988;DHT22;3534;49.960;8.018;2022-10-28T10:06:48;17.10;99.90
6988;DHT22;3534;49.960;8.018;2022-10-28T10:09:20;17.20;99.90
6988;DHT22;3534;49.960;8.018;2022-10-28T10:11:49;17.20;99.90
6988;DHT22;3534;49.960;8.018;2022-10-28T10:14:21;17.30;99.90
6988;DHT22;3534;49.960;8.018;2022-10-28T10:16:52;17.40;99.90
6988;DHT22;3534;49.960;8.018;2022-10-28T10:19:20;17.50;99.90
6988;DHT22;3534;49.960;8.018;2022-10-28T10:21:50;17.60;99.90
6988;DHT22;3534;49.960;8.018;2022-10-28T10:24:30;17.70;99.90
6988;DHT22;3534;49.960;8.018;2022-10-28T10:27:00;17.80;99.90
6988;DHT22;3534;49.960;8.018;2022-10-28T10:29:28;18.00;99.90
6988;DHT22;3534;49.960;8.018;2022-10-28T10:32:12;18.10;99.90
6988;DHT22;3534;49.960;8.018;2022-10-28T10:34:43;18.20;99.90
6988;DHT22;3534;49.960;8.018;2022-10-28T10:37:18;18.30;99.90
6988;DHT22;3534;49.960;8.018;2022-10-28T10:39:58;18.50;99.90
6988;DHT22;3534;49.960;8.018;2022-10-28T10:42:26;18.60;99.90
6988;DHT22;3534;49.960;8.018;2022-10-28T10:44:59;18.80;99.90
6988;DHT22;3534;49.960;8.018;2022-10-28T10:47:26;18.90;99.90
6988;DHT22;3534;49.960;8.018;2022-10-28T10:50:18;19.00;99.90
6988;DHT22;3534;49.960;8.018;2022-10-28T10:52:50;19.20;99.90
6988;DHT22;3534;49.960;8.018;2022-10-28T10:55:22;19.30;99.90
6988;DHT22;3534;49.960;8.018;2022-10-28T10:57:50;19.50;99.90
6988;DHT22;3534;49.960;8.018;2022-10-28T11:00:19;19.60;99.90
6988;DHT22;3534;49.960;8.018;2022-10-28T11:02:47;19.80;99.90
6988;DHT22;3534;49.960;8.018;2022-10-28T11:05:20;20.00;99.90
6988;DHT22;3534;49.960;8.018;2022-10-28T11:07:50;20.20;99.90
6988;DHT22;3534;49.960;8.018;2022-10-28T11:10:24;20.40;99.90
6988;DHT22;3534;49.960;8.018;2022-10-28T11:12:53;20.60;99.90
6988;DHT22;3534;49.960;8.018;2022-10-28T11:15:23;20.70;99.90
6988;DHT22;3534;49.960;8.018;2022-10-28T11:17:55;20.90;99.90
6988;DHT22;3534;49.960;8.018;2022-10-28T11:20:23;21.00;99.90
6988;DHT22;3534;49.960;8.018;2022-10-28T11:23:01;21.00;99.90
6988;DHT22;3534;49.960;8.018;2022-10-28T11:25:36;21.00;99.90
6988;DHT22;3534;49.960;8.018;2022-10-28T11:28:22;21.00;99.90
6988;DHT22;3534;49.960;8.018;2022-10-28T11:30:58;21.10;99.90
6988;DHT22;3534;49.960;8.018;2022-10-28T11:33:35;21.10;99.90
6988;DHT22;3534;49.960;8.018;2022-10-28T11:36:14;21.10;99.90
6988;DHT22;3534;49.960;8.018;2022-10-28T11:38:59;21.10;99.90
6988;DHT22;3534;49.960;8.018;2022-10-28T11:41:36;21.20;99.90
6988;DHT22;3534;49.960;8.018;2022-10-28T11:44:10;21.40;99.90
6988;DHT22;3534;49.960;8.018;2022-10-28T11:46:48;21.50;99.90
6988;DHT22;3534;49.960;8.018;2022-10-28T11:49:35;21.70;99.90
6988;DHT22;3534;49.960;8.018;2022-10-28T11:52:13;21.90;99.90
6988;DHT22;3534;49.960;8.018;2022-10-28T11:54:53;22.00;99.90
6988;DHT22;3534;49.960;8.018;2022-10-28T11:57:40;22.10;99.90
6988;DHT22;3534;49.960;8.018;2022-10-28T12:00:23;22.20;99.90
6988;DHT22;3534;49.960;8.018;2022-10-28T12:03:01;22.40;99.90
6988;DHT22;3534;49.960;8.018;2022-10-28T12:05:39;22.40;99.90
6988;DHT22;3534;49.960;8.018;2022-10-28T12:08:15;22.50;99.90
6988;DHT22;3534;49.960;8.018;2022-10-28T12:10:53;22.60;99.90
6988;DHT22;3534;49.960;8.018;2022-10-28T12:13:29;22.70;99.90
6988;DHT22;3534;49.960;8.018;2022-10-28T12:16:04;22.90;99.90
6988;DHT22;3534;49.960;8.018;2022-10-28T12:18:34;23.10;99.90
6988;DHT22;3534;49.960;8.018;2022-10-28T12:21:12;23.20;99.90
6988;DHT22;3534;49.960;8.018;2022-10-28T12:23:41;23.40;99.90
6988;DHT22;3534;49.960;8.018;2022-10-28T12:26:13;23.60;99.90
6988;DHT22;3534;49.960;8.018;2022-10-28T12:28:43;23.80;99.90
6988;DHT22;3534;49.960;8.018;2022-10-28T12:31:17;24.00;99.90
6988;DHT22;3534;49.960;8.018;2022-10-28T12:33:47;24.10;99.90
6988;DHT22;3534;49.960;8.018;2022-10-28T12:36:23;24.30;99.90
6988;DHT22;3534;49.960;8.018;2022-10-28T12:38:56;24.40;99.90
6988;DHT22;3534;49.960;8.018;2022-10-28T12:41:26;24.40;99.90
6988;DHT22;3534;49.960;8.018;2022-10-28T12:43:56;24.40;99.90
6988;DHT22;3534;49.960;8.018;2022-10-28T12:46:29;24.40;99.90
6988;DHT22;3534;49.960;8.018;2022-10-28T12:49:04;24.30;99.90
6988;DHT22;3534;49.960;8.018;2022-10-28T12:51:36;24.30;99.90
6988;DHT22;3534;49.960;8.018;2022-10-28T12:54:13;24.30;99.90
6988;DHT22;3534;49.960;8.018;2022-10-28T12:56:48;24.40;99.90
6988;DHT22;3534;49.960;8.018;2022-10-28T12:59:21;24.60;99.90
6988;DHT22;3534;49.960;8.018;2022-10-28T13:01:52;24.80;99.90
6988;DHT22;3534;49.960;8.018;2022-10-28T13:04:19;24.90;99.90
6988;DHT22;3534;49.960;8.018;2022-10-28T13:07:20;25.10;99.90
6988;DHT22;3534;49.960;8.018;2022-10-28T13:09:56;25.30;99.90
6988;DHT22;3534;49.960;8.018;2022-10-28T13:12:46;25.40;99.90
6988;DHT22;3534;49.960;8.018;2022-10-28T13:15:27;25.40;99.90
6988;DHT22;3534;49.960;8.018;2022-10-28T13:18:21;25.50;99.90
6988;DHT22;3534;49.960;8.018;2022-10-28T13:21:00;25.60;99.90
6988;DHT22;3534;49.960;8.018;2022-10-28T13:23:34;25.60;99.90
6988;DHT22;3534;49.960;8.018;2022-10-28T13:26:14;25.60;99.90
6988;DHT22;3534;49.960;8.018;2022-10-28T13:28:46;25.60;99.90
6988;DHT22;3534;49.960;8.018;2022-10-28T13:31:14;25.80;99.90
6988;DHT22;3534;49.960;8.018;2022-10-28T13:33:49;26.00;99.90
6988;DHT22;3534;49.960;8.018;2022-10-28T13:36:19;26.10;99.90
6988;DHT22;3534;49.960;8.018;2022-10-28T13:38:54;26.30;99.90
6988;DHT22;3534;49.960;8.018;2022-10-28T13:41:42;26.50;99.90
6988;DHT22;3534;49.960;8.018;2022-10-28T13:44:26;26.70;99.90
6988;DHT22;3534;49.960;8.018;2022-10-28T13:52:43;26.90;99.90
6988;DHT22;3534;49.960;8.018;2022-10-28T13:55:22;27.00;99.90
6988;DHT22;3534;49.960;8.018;2022-10-28T13:57:51;27.20;99.90
6988;DHT22;3534;49.960;8.018;2022-10-28T14:00:35;27.20;99.90
6988;DHT22;3534;49.960;8.018;2022-10-28T14:03:03;27.10;99.90
6988;DHT22;3534;49.960;8.018;2022-10-28T14:05:51;27.10;99.90
6988;DHT22;3534;49.960;8.018;2022-10-28T14:08:24;27.10;99.90
6988;DHT22;3534;49.960;8.018;2022-10-28T14:11:00;26.90;99.90
6988;DHT22;3534;49.960;8.018;2022-10-28T14:13:29;26.90;99.90
6988;DHT22;3534;49.960;8.018;2022-10-28T14:16:21;26.90;99.90
6988;DHT22;3534;49.960;8.018;2022-10-28T14:18:58;26.80;99.90
6988;DHT22;3534;49.960;8.018;2022-10-28T14:21:39;26.60;99.90
6988;DHT22;3534;49.960;8.018;2022-10-28T14:24:08;26.50;99.90
6988;DHT22;3534;49.960;8.018;2022-10-28T14:27:18;26.40;99.90
6988;DHT22;3534;49.960;8.018;2022-10-28T14:29:46;26.00;99.90
6988;DHT22;3534;49.960;8.018;2022-10-28T14:32:39;25.80;99.90
6988;DHT22;3534;49.960;8.018;2022-10-28T14:35:18;25.60;99.90
6988;DHT22;3534;49.960;8.018;2022-10-28T14:38:12;25.40;99.90
6988;DHT22;3534;49.960;8.018;2022-10-28T14:40:46;25.30;99.90
6988;DHT22;3534;49.960;8.018;2022-10-28T14:43:30;25.30;99.90
6988;DHT22;3534;49.960;8.018;2022-10-28T14:46:08;25.10;99.90
6988;DHT22;3534;49.960;8.018;2022-10-28T14:48:48;25.10;99.90
6988;DHT22;3534;49.960;8.018;2022-10-28T14:51:18;25.00;99.90
6988;DHT22;3534;49.960;8.018;2022-10-28T14:53:46;25.00;99.90
6988;DHT22;3534;49.960;8.018;2022-10-28T14:56:19;24.90;99.90
6988;DHT22;3534;49.960;8.018;2022-10-28T14:58:48;24.80;99.90
6988;DHT22;3534;49.960;8.018;2022-10-28T15:01:20;24.70;99.90
6988;DHT22;3534;49.960;8.018;2022-10-28T15:03:52;24.70;99.90
6988;DHT22;3534;49.960;8.018;2022-10-28T15:06:29;24.50;99.90
6988;DHT22;3534;49.960;8.018;2022-10-28T15:09:06;24.50;99.90
6988;DHT22;3534;49.960;8.018;2022-10-28T15:11:34;24.30;99.90
6988;DHT22;3534;49.960;8.018;2022-10-28T15:14:13;24.30;99.90
6988;DHT22;3534;49.960;8.018;2022-10-28T15:16:45;24.20;99.90
6988;DHT22;3534;49.960;8.018;2022-10-28T15:19:17;24.00;99.90
6988;DHT22;3534;49.960;8.018;2022-10-28T15:22:01;23.90;99.90
6988;DHT22;3534;49.960;8.018;2022-10-28T15:24:28;23.80;99.90
6988;DHT22;3534;49.960;8.018;2022-10-28T15:26:55;23.70;99.90
6988;DHT22;3534;49.960;8.018;2022-10-28T15:29:23;23.70;99.90
6988;DHT22;3534;49.960;8.018;2022-10-28T15:32:09;23.50;99.90
6988;DHT22;3534;49.960;8.018;2022-10-28T15:34:38;23.40;99.90
6988;DHT22;3534;49.960;8.018;2022-10-28T15:37:05;23.30;99.90
6988;DHT22;3534;49.960;8.018;2022-10-28T15:39:33;23.20;99.90
6988;DHT22;3534;49.960;8.018;2022-10-28T15:41:59;23.10;99.90
6988;DHT22;3534;49.960;8.018;2022-10-28T15:44:34;23.10;99.90
6988;DHT22;3534;49.960;8.018;2022-10-28T15:47:13;23.00;99.90
6988;DHT22;3534;49.960;8.018;2022-10-28T15:49:42;22.90;99.90
6988;DHT22;3534;49.960;8.018;2022-10-28T15:52:20;22.80;99.90
6988;DHT22;3534;49.960;8.018;2022-10-28T15:54:53;22.70;99.90
6988;DHT22;3534;49.960;8.018;2022-10-28T15:57:21;22.60;99.90
6988;DHT22;3534;49.960;8.018;2022-10-28T15:59:52;22.50;99.90
6988;DHT22;3534;49.960;8.018;2022-10-28T16:02:39;22.40;99.90
6988;DHT22;3534;49.960;8.018;2022-10-28T16:05:44;22.40;99.90
6988;DHT22;3534;49.960;8.018;2022-10-28T16:08:20;22.40;99.90
6988;DHT22;3534;49.960;8.018;2022-10-28T16:10:49;22.30;99.90
6988;DHT22;3534;49.960;8.018;2022-10-28T16:13:20;22.30;99.90
6988;DHT22;3534;49.960;8.018;2022-10-28T16:15:51;22.20;99.90
6988;DHT22;3534;49.960;8.018;2022-10-28T16:18:20;22.20;99.90
6988;DHT22;3534;49.960;8.018;2022-10-28T16:20:48;22.10;99.90
6988;DHT22;3534;49.960;8.018;2022-10-28T16:23:16;22.00;99.90
6988;DHT22;3534;49.960;8.018;2022-10-28T16:25:44;22.00;99.90
6988;DHT22;3534;49.960;8.018;2022-10-28T16:28:18;21.90;99.90
6988;DHT22;3534;49.960;8.018;2022-10-28T16:30:46;21.70;99.90
6988;DHT22;3534;49.960;8.018;2022-10-28T16:33:12;21.60;99.90
6988;DHT22;3534;49.960;8.018;2022-10-28T16:35:39;21.50;99.90
6988;DHT22;3534;49.960;8.018;2022-10-28T16:38:10;21.40;99.90
6988;DHT22;3534;49.960;8.018;2022-10-28T16:40:39;21.30;99.90
6988;DHT22;3534;49.960;8.018;2022-10-28T16:43:12;21.30;99.90
6988;DHT22;3534;49.960;8.018;2022-10-28T16:45:40;21.20;99.90
6988;DHT22;3534;49.960;8.018;2022-10-28T16:48:10;21.20;99.90
6988;DHT22;3534;49.960;8.018;2022-10-28T16:50:37;21.10;99.90
6988;DHT22;3534;49.960;8.018;2022-10-28T16:53:03;21.10;99.90
6988;DHT22;3534;49.960;8.018;2022-10-28T16:57:59;21.00;99.90
6988;DHT22;3534;49.960;8.018;2022-10-28T17:00:26;21.00;99.90